Time;durP1;ratioP1;P1;durP2;ratioP2;P2;SDS_P1;SDS_P2;PMS_P1;PMS_P2;Temp;Humidity;BMP_temperature;BMP_pressure;BME280_temperature;BME280_humidity;BME280_pressure;Samples;Min_cycle;Max_cycle;Signal;HPM_P1;HPM_P2
2021/07/10 00:02:00;;;;;;;2.40;1.65;;;;;;;;;;5048513;28;20421;-74
2021/07/10 00:04:45;;;;;;;3.38;1.77;;;;;;;;;;5058896;28;20105;-73
2021/07/10 00:07:32;;;;;;;2.55;1.70;;;;;;;;;;5062594;28;20094;-73
2021/07/10 00:10:18;;;;;;;2.33;1.50;;;;;;;;;;5059791;28;20068;-74
2021/07/10 00:13:02;;;;;;;2.13;1.80;;;;;;;;;;5060308;28;20124;-73
2021/07/10 00:15:47;;;;;;;2.33;1.70;;;;;;;;;;5062803;28;20093;-73
2021/07/10 00:18:31;;;;;;;2.20;1.70;;;;;;;;;;5062318;28;20082;-73
2021/07/10 00:21:16;;;;;;;2.22;1.75;;;;;;;;;;5062679;28;20163;-73
2021/07/10 00:24:00;;;;;;;2.47;1.60;;;;;;;;;;5042300;28;20554;-73
2021/07/10 00:26:45;;;;;;;3.15;1.85;;;;;;;;;;5047228;28;20036;-73
2021/07/10 00:29:29;;;;;;;2.42;1.80;;;;;;;;;;5043580;28;20060;-73
2021/07/10 00:32:14;;;;;;;2.55;1.60;;;;;;;;;;5063758;28;20044;-73
2021/07/10 00:34:59;;;;;;;3.17;1.83;;;;;;;;;;5032983;28;20151;-74
2021/07/10 00:37:43;;;;;;;2.65;1.63;;;;;;;;;;5065790;28;20595;-73
2021/07/10 00:40:28;;;;;;;2.00;1.65;;;;;;;;;;5055783;28;20101;-74
2021/07/10 00:43:13;;;;;;;2.40;1.83;;;;;;;;;;5066625;28;20074;-74
2021/07/10 00:45:57;;;;;;;2.58;1.90;;;;;;;;;;5052102;28;20511;-73
2021/07/10 00:48:42;;;;;;;2.85;1.80;;;;;;;;;;5065712;28;20066;-74
2021/07/10 00:51:26;;;;;;;2.70;1.80;;;;;;;;;;5067118;28;20104;-74
2021/07/10 00:54:11;;;;;;;2.10;1.80;;;;;;;;;;5050155;28;20043;-74
2021/07/10 00:56:58;;;;;;;2.13;1.60;;;;;;;;;;5065592;28;20114;-74
2021/07/10 00:59:42;;;;;;;2.13;1.80;;;;;;;;;;5057224;28;20040;-74
2021/07/10 01:02:27;;;;;;;2.03;1.63;;;;;;;;;;5064217;28;20596;-74
2021/07/10 01:05:13;;;;;;;2.38;1.60;;;;;;;;;;5063946;28;20035;-73
2021/07/10 01:07:58;;;;;;;2.22;1.60;;;;;;;;;;5047889;28;20554;-73
2021/07/10 01:10:42;;;;;;;2.17;1.70;;;;;;;;;;5065730;28;20512;-73
2021/07/10 01:13:27;;;;;;;2.03;1.83;;;;;;;;;;5065634;28;20078;-73
2021/07/10 01:16:11;;;;;;;3.40;1.70;;;;;;;;;;5065101;28;20526;-73
2021/07/10 01:18:56;;;;;;;2.53;1.50;;;;;;;;;;5065219;28;20660;-73
2021/07/10 01:21:40;;;;;;;3.15;1.90;;;;;;;;;;5051913;28;20048;-77
2021/07/10 01:24:25;;;;;;;2.45;1.92;;;;;;;;;;5064802;28;20048;-73
2021/07/10 01:27:10;;;;;;;2.53;1.83;;;;;;;;;;5064801;28;20062;-73
2021/07/10 01:29:54;;;;;;;2.42;1.75;;;;;;;;;;5051188;28;20051;-73
2021/07/10 01:32:39;;;;;;;2.85;1.90;;;;;;;;;;5064754;28;20039;-73
2021/07/10 01:35:23;;;;;;;3.33;2.08;;;;;;;;;;5065284;28;20081;-74
2021/07/10 01:38:09;;;;;;;3.22;1.83;;;;;;;;;;5057663;28;20504;-73
2021/07/10 01:40:54;;;;;;;4.78;2.10;;;;;;;;;;5035552;28;20818;-73
2021/07/10 01:43:38;;;;;;;2.70;1.70;;;;;;;;;;5057618;28;20113;-73
2021/07/10 01:46:22;;;;;;;2.30;1.90;;;;;;;;;;5065895;28;20048;-73
2021/07/10 01:49:07;;;;;;;3.20;2.05;;;;;;;;;;5048672;28;20157;-73
2021/07/10 01:51:51;;;;;;;2.22;1.83;;;;;;;;;;5050816;28;20058;-74
2021/07/10 01:54:36;;;;;;;3.25;2.30;;;;;;;;;;5042160;28;20055;-73
2021/07/10 01:57:21;;;;;;;2.97;2.15;;;;;;;;;;5053200;28;20117;-73
2021/07/10 02:00:25;;;;;;;2.60;2.08;;;;;;;;;;5053583;28;20047;-73
2021/07/10 02:03:11;;;;;;;2.97;2.03;;;;;;;;;;5068444;28;20118;-73
2021/07/10 02:05:56;;;;;;;2.63;1.80;;;;;;;;;;5048466;28;20067;-73
2021/07/10 02:08:40;;;;;;;3.33;1.83;;;;;;;;;;5064875;28;20047;-73
2021/07/10 02:11:25;;;;;;;2.70;2.38;;;;;;;;;;5067154;28;20047;-73
2021/07/10 02:14:09;;;;;;;2.55;2.20;;;;;;;;;;5052224;28;20040;-73
2021/07/10 02:16:54;;;;;;;2.75;1.85;;;;;;;;;;5066989;28;20094;-72
2021/07/10 02:19:38;;;;;;;2.60;2.25;;;;;;;;;;5066045;28;20056;-74
2021/07/10 02:22:23;;;;;;;2.72;1.63;;;;;;;;;;5053060;28;20098;-72
2021/07/10 02:25:08;;;;;;;3.42;2.30;;;;;;;;;;5060513;28;20645;-74
2021/07/10 02:27:53;;;;;;;3.10;2.13;;;;;;;;;;5046293;28;20071;-73
2021/07/10 02:30:38;;;;;;;2.58;2.20;;;;;;;;;;5046701;28;20051;-73
2021/07/10 02:33:22;;;;;;;2.08;1.77;;;;;;;;;;5060013;28;20047;-73
2021/07/10 02:36:07;;;;;;;2.70;2.10;;;;;;;;;;5066034;28;20035;-72
2021/07/10 02:38:52;;;;;;;3.65;2.22;;;;;;;;;;5067660;28;20149;-73
2021/07/10 02:41:37;;;;;;;2.55;1.95;;;;;;;;;;5066362;28;20051;-72
2021/07/10 02:44:22;;;;;;;2.22;1.90;;;;;;;;;;5066422;28;20046;-72
2021/07/10 02:47:06;;;;;;;2.55;2.20;;;;;;;;;;5066190;28;20155;-73
2021/07/10 02:49:50;;;;;;;2.47;1.90;;;;;;;;;;5032468;28;20083;-72
2021/07/10 02:52:35;;;;;;;3.35;2.30;;;;;;;;;;5051149;28;20093;-73
2021/07/10 02:55:21;;;;;;;2.30;2.00;;;;;;;;;;5054337;28;20043;-72
2021/07/10 02:58:05;;;;;;;2.60;2.25;;;;;;;;;;5065588;28;20109;-73
2021/07/10 03:00:50;;;;;;;2.65;2.20;;;;;;;;;;5052375;28;20106;-72
2021/07/10 03:03:35;;;;;;;3.58;1.80;;;;;;;;;;5065410;28;20518;-72
2021/07/10 03:06:19;;;;;;;2.47;2.00;;;;;;;;;;5066432;28;20098;-73
2021/07/10 03:09:03;;;;;;;2.88;2.20;;;;;;;;;;5061247;28;20035;-72
2021/07/10 03:11:48;;;;;;;2.55;1.83;;;;;;;;;;5064894;28;20483;-72
2021/07/10 03:14:33;;;;;;;2.83;1.95;;;;;;;;;;5044953;28;20043;-73
2021/07/10 03:17:18;;;;;;;2.50;1.90;;;;;;;;;;5042315;28;20040;-73
2021/07/10 03:20:06;;;;;;;2.40;1.95;;;;;;;;;;5065006;28;20058;-73
2021/07/10 03:22:51;;;;;;;2.83;2.03;;;;;;;;;;5065088;28;20052;-73
2021/07/10 03:25:37;;;;;;;2.70;2.00;;;;;;;;;;5064133;28;20090;-73
2021/07/10 03:28:21;;;;;;;4.00;2.30;;;;;;;;;;5066182;28;20074;-72
2021/07/10 03:31:06;;;;;;;4.60;2.20;;;;;;;;;;5051567;28;20040;-73
2021/07/10 03:33:51;;;;;;;2.95;2.00;;;;;;;;;;5045879;28;20036;-73
2021/07/10 03:36:35;;;;;;;3.13;2.10;;;;;;;;;;5050649;28;20077;-73
2021/07/10 03:39:21;;;;;;;3.17;2.20;;;;;;;;;;5065373;28;20040;-72
2021/07/10 03:42:06;;;;;;;2.83;2.25;;;;;;;;;;5045015;28;20047;-73
2021/07/10 03:44:51;;;;;;;2.45;2.00;;;;;;;;;;5045565;28;20036;-72
2021/07/10 03:47:35;;;;;;;2.97;2.20;;;;;;;;;;5046381;28;20110;-73
2021/07/10 03:50:20;;;;;;;3.45;2.10;;;;;;;;;;5031563;28;20413;-73
2021/07/10 03:53:04;;;;;;;2.33;1.80;;;;;;;;;;5061440;28;20039;-72
2021/07/10 03:55:49;;;;;;;2.58;2.10;;;;;;;;;;5054162;28;20683;-73
2021/07/10 03:58:34;;;;;;;4.82;2.17;;;;;;;;;;5065043;28;20074;-73
2021/07/10 04:01:19;;;;;;;2.72;2.00;;;;;;;;;;5051457;28;20075;-73
2021/07/10 04:04:03;;;;;;;2.53;2.00;;;;;;;;;;5064907;28;20762;-73
2021/07/10 04:06:48;;;;;;;3.50;2.22;;;;;;;;;;5065164;28;20035;-72
2021/07/10 04:09:33;;;;;;;3.28;2.17;;;;;;;;;;5065238;28;20062;-73
2021/07/10 04:12:17;;;;;;;3.25;2.40;;;;;;;;;;5048306;28;20400;-72
2021/07/10 04:15:02;;;;;;;3.10;2.22;;;;;;;;;;5045286;28;20084;-72
2021/07/10 04:17:47;;;;;;;2.28;2.05;;;;;;;;;;5046294;28;20039;-72
2021/07/10 04:20:32;;;;;;;3.95;2.30;;;;;;;;;;5065730;28;20078;-72
2021/07/10 04:23:16;;;;;;;4.47;2.45;;;;;;;;;;5066434;28;20929;-73
2021/07/10 04:26:01;;;;;;;3.13;2.22;;;;;;;;;;5050104;28;20150;-73
2021/07/10 04:28:45;;;;;;;3.22;2.45;;;;;;;;;;5046195;28;20106;-73
2021/07/10 04:31:30;;;;;;;3.28;2.38;;;;;;;;;;5047511;28;20091;-73
2021/07/10 04:34:14;;;;;;;3.42;2.42;;;;;;;;;;5051200;28;20447;-73
2021/07/10 04:36:59;;;;;;;3.22;2.40;;;;;;;;;;5068036;28;20060;-72
2021/07/10 04:39:43;;;;;;;3.78;2.17;;;;;;;;;;5071213;28;20062;-74
2021/07/10 04:42:28;;;;;;;2.65;2.03;;;;;;;;;;5075543;28;20658;-73
2021/07/10 04:45:13;;;;;;;3.22;2.10;;;;;;;;;;5050938;28;20542;-74
2021/07/10 04:47:57;;;;;;;3.38;2.40;;;;;;;;;;5064481;28;20047;-73
2021/07/10 04:50:42;;;;;;;3.63;2.40;;;;;;;;;;5062022;28;20515;-74
2021/07/10 04:53:26;;;;;;;2.95;2.15;;;;;;;;;;5060260;28;20051;-75
2021/07/10 04:56:11;;;;;;;3.22;2.20;;;;;;;;;;5051719;28;20036;-74
2021/07/10 04:58:55;;;;;;;2.90;2.20;;;;;;;;;;5041770;28;20080;-74
2021/07/10 05:01:40;;;;;;;3.00;2.30;;;;;;;;;;5048060;28;20047;-73
2021/07/10 05:04:24;;;;;;;2.28;2.00;;;;;;;;;;5062089;28;20214;-74
2021/07/10 05:07:09;;;;;;;2.90;2.45;;;;;;;;;;5048048;28;20082;-73
2021/07/10 05:09:54;;;;;;;4.53;2.17;;;;;;;;;;5062061;28;20082;-73
2021/07/10 05:12:38;;;;;;;2.92;2.08;;;;;;;;;;5062270;28;20043;-73
2021/07/10 05:15:23;;;;;;;2.53;2.17;;;;;;;;;;5047857;28;20044;-73
2021/07/10 05:18:08;;;;;;;3.30;2.30;;;;;;;;;;5065622;28;20614;-73
2021/07/10 05:20:53;;;;;;;3.47;2.25;;;;;;;;;;5065594;28;20039;-74
2021/07/10 05:23:38;;;;;;;2.65;2.22;;;;;;;;;;5065763;28;20050;-74
2021/07/10 05:26:22;;;;;;;3.42;2.08;;;;;;;;;;5050719;28;20075;-73
2021/07/10 05:29:07;;;;;;;4.15;2.30;;;;;;;;;;5051155;28;20226;-73
2021/07/10 05:31:52;;;;;;;2.80;2.08;;;;;;;;;;5051485;28;20043;-73
2021/07/10 05:34:36;;;;;;;2.67;1.98;;;;;;;;;;5065437;28;20056;-74
2021/07/10 05:37:21;;;;;;;2.80;2.20;;;;;;;;;;5065386;28;20131;-75
2021/07/10 05:40:06;;;;;;;3.83;2.30;;;;;;;;;;5065379;28;20562;-73
2021/07/10 05:42:51;;;;;;;3.00;2.08;;;;;;;;;;5065793;28;20173;-74
2021/07/10 05:45:35;;;;;;;2.75;2.22;;;;;;;;;;5051074;28;20117;-73
2021/07/10 05:48:20;;;;;;;3.58;2.42;;;;;;;;;;5065025;28;20047;-74
2021/07/10 05:51:04;;;;;;;3.17;2.30;;;;;;;;;;5051211;28;20047;-73
2021/07/10 05:53:49;;;;;;;2.80;2.17;;;;;;;;;;5065459;28;20040;-73
2021/07/10 05:56:33;;;;;;;3.58;2.25;;;;;;;;;;5038592;28;20062;-73
2021/07/10 05:59:17;;;;;;;3.10;2.25;;;;;;;;;;5064460;28;20036;-73
2021/07/10 06:02:06;;;;;;;3.33;2.28;;;;;;;;;;5064773;28;20130;-73
2021/07/10 06:04:51;;;;;;;3.08;2.75;;;;;;;;;;5045098;28;20159;-74
2021/07/10 06:07:37;;;;;;;3.42;2.60;;;;;;;;;;5034682;28;20050;-73
2021/07/10 06:10:22;;;;;;;2.90;2.25;;;;;;;;;;5051391;28;20706;-72
2021/07/10 06:13:07;;;;;;;3.95;2.28;;;;;;;;;;5033991;28;20039;-73
2021/07/10 06:15:52;;;;;;;3.17;2.10;;;;;;;;;;5065424;28;20051;-74
2021/07/10 06:18:36;;;;;;;3.08;2.40;;;;;;;;;;5050243;28;20400;-73
2021/07/10 06:21:21;;;;;;;2.33;2.00;;;;;;;;;;5050746;28;20083;-73
2021/07/10 06:24:05;;;;;;;3.53;2.50;;;;;;;;;;5046614;28;20055;-74
2021/07/10 06:26:50;;;;;;;4.43;2.20;;;;;;;;;;5050040;28;20659;-73
2021/07/10 06:29:36;;;;;;;3.30;2.22;;;;;;;;;;5063777;28;20046;-73
2021/07/10 06:32:20;;;;;;;2.78;2.28;;;;;;;;;;5050517;28;20654;-73
2021/07/10 06:35:05;;;;;;;2.92;2.17;;;;;;;;;;5044138;28;20466;-76
2021/07/10 06:37:50;;;;;;;3.20;2.28;;;;;;;;;;5033112;28;20052;-78
2021/07/10 06:40:35;;;;;;;3.08;2.60;;;;;;;;;;5063944;28;20511;-73
2021/07/10 06:43:19;;;;;;;2.97;2.00;;;;;;;;;;5065380;28;20054;-73
2021/07/10 06:46:07;;;;;;;2.75;2.20;;;;;;;;;;5076308;28;20579;-74
2021/07/10 06:48:51;;;;;;;3.67;2.10;;;;;;;;;;5044059;28;20052;-73
2021/07/10 06:51:36;;;;;;;2.90;2.20;;;;;;;;;;5049143;28;20047;-73
2021/07/10 06:54:21;;;;;;;2.90;2.20;;;;;;;;;;5063582;28;20078;-74
2021/07/10 06:57:06;;;;;;;3.50;2.30;;;;;;;;;;5061355;28;20047;-74
2021/07/10 06:59:50;;;;;;;2.60;2.03;;;;;;;;;;5061668;28;20360;-73
2021/07/10 07:02:35;;;;;;;2.55;2.10;;;;;;;;;;5064501;28;20070;-73
2021/07/10 07:05:20;;;;;;;3.10;2.05;;;;;;;;;;5048196;28;20039;-74
2021/07/10 07:08:04;;;;;;;3.30;2.28;;;;;;;;;;5045678;28;20775;-73
2021/07/10 07:10:49;;;;;;;2.97;2.10;;;;;;;;;;5064284;28;20043;-74
2021/07/10 07:13:34;;;;;;;3.10;2.50;;;;;;;;;;5062664;28;20039;-74
2021/07/10 07:16:18;;;;;;;2.83;2.15;;;;;;;;;;5064081;28;20067;-77
2021/07/10 07:19:03;;;;;;;2.50;1.90;;;;;;;;;;5063922;28;20040;-74
2021/07/10 07:21:48;;;;;;;2.42;2.17;;;;;;;;;;5064068;28;20500;-74
2021/07/10 07:24:32;;;;;;;2.75;2.30;;;;;;;;;;5047409;28;20055;-74
2021/07/10 07:27:17;;;;;;;2.97;2.17;;;;;;;;;;5063051;28;20094;-73
2021/07/10 07:30:02;;;;;;;2.75;1.90;;;;;;;;;;5042492;28;20623;-74
2021/07/10 07:32:46;;;;;;;2.65;2.13;;;;;;;;;;5060192;28;20051;-74
2021/07/10 07:35:31;;;;;;;3.22;2.20;;;;;;;;;;5064346;28;20404;-73
2021/07/10 07:38:15;;;;;;;2.80;2.20;;;;;;;;;;5063189;28;20113;-73
2021/07/10 07:41:00;;;;;;;2.60;2.15;;;;;;;;;;5063972;28;20488;-74
2021/07/10 07:43:45;;;;;;;2.35;2.03;;;;;;;;;;5062899;28;20070;-73
2021/07/10 07:46:30;;;;;;;2.60;2.10;;;;;;;;;;5061672;28;20523;-74
2021/07/10 07:49:14;;;;;;;2.65;1.85;;;;;;;;;;5057680;28;20139;-73
2021/07/10 07:51:59;;;;;;;3.45;2.13;;;;;;;;;;5050360;28;20039;-73
2021/07/10 07:54:43;;;;;;;2.70;2.20;;;;;;;;;;5059938;28;20086;-73
2021/07/10 07:57:27;;;;;;;2.60;2.10;;;;;;;;;;5045737;28;20519;-74
2021/07/10 08:00:14;;;;;;;2.92;1.98;;;;;;;;;;5059252;28;20059;-73
2021/07/10 08:02:58;;;;;;;2.53;1.98;;;;;;;;;;5061716;28;20055;-73
2021/07/10 08:05:43;;;;;;;2.58;1.90;;;;;;;;;;5061632;28;20097;-75
2021/07/10 08:08:28;;;;;;;3.17;2.30;;;;;;;;;;5060878;28;20507;-73
2021/07/10 08:11:12;;;;;;;2.65;2.15;;;;;;;;;;5062467;28;20052;-73
2021/07/10 08:13:57;;;;;;;2.58;2.13;;;;;;;;;;5063094;28;20115;-78
2021/07/10 08:16:42;;;;;;;2.47;2.05;;;;;;;;;;5035218;28;20098;-73
2021/07/10 08:19:26;;;;;;;3.47;2.30;;;;;;;;;;5048493;28;20040;-73
2021/07/10 08:22:11;;;;;;;2.65;2.30;;;;;;;;;;5062587;28;20055;-74
2021/07/10 08:24:55;;;;;;;2.90;2.10;;;;;;;;;;5057812;28;20040;-74
2021/07/10 08:27:43;;;;;;;3.05;1.77;;;;;;;;;;5062092;28;20087;-73
2021/07/10 08:30:27;;;;;;;2.78;1.90;;;;;;;;;;5058648;28;20415;-74
2021/07/10 08:33:12;;;;;;;2.35;1.95;;;;;;;;;;5042798;28;20114;-73
2021/07/10 08:35:57;;;;;;;2.30;1.95;;;;;;;;;;5053849;28;20055;-74
2021/07/10 08:38:42;;;;;;;2.72;1.80;;;;;;;;;;5048602;28;20083;-74
2021/07/10 08:41:26;;;;;;;3.28;2.20;;;;;;;;;;5054635;28;20516;-73
2021/07/10 08:44:11;;;;;;;3.70;1.83;;;;;;;;;;5055371;28;20887;-73
2021/07/10 08:46:56;;;;;;;2.70;2.05;;;;;;;;;;5052776;28;20551;-73
2021/07/10 08:49:41;;;;;;;2.22;2.03;;;;;;;;;;5056781;28;20040;-74
2021/07/10 08:52:26;;;;;;;3.17;2.00;;;;;;;;;;5063482;28;20152;-73
2021/07/10 08:55:11;;;;;;;2.75;2.00;;;;;;;;;;5052809;28;20040;-74
2021/07/10 08:57:56;;;;;;;2.50;2.03;;;;;;;;;;5046249;28;20478;-73
2021/07/10 09:00:41;;;;;;;2.63;2.15;;;;;;;;;;5063507;28;20480;-73
2021/07/10 09:03:26;;;;;;;2.90;2.20;;;;;;;;;;5063180;28;20059;-78
2021/07/10 09:06:10;;;;;;;2.60;2.00;;;;;;;;;;5050156;28;20047;-75
2021/07/10 09:08:55;;;;;;;2.47;1.80;;;;;;;;;;5055820;28;20047;-74
2021/07/10 09:11:40;;;;;;;3.33;2.30;;;;;;;;;;5065231;28;20078;-75
2021/07/10 09:14:29;;;;;;;2.53;1.80;;;;;;;;;;5065191;28;20039;-74
2021/07/10 09:17:14;;;;;;;2.97;2.00;;;;;;;;;;5045510;28;20048;-73
2021/07/10 09:19:59;;;;;;;4.00;2.00;;;;;;;;;;5063075;28;20044;-73
2021/07/10 09:22:44;;;;;;;3.55;2.15;;;;;;;;;;5047909;28;20068;-75
2021/07/10 09:25:29;;;;;;;3.13;2.10;;;;;;;;;;5049337;28;20503;-74
2021/07/10 09:28:14;;;;;;;3.17;2.00;;;;;;;;;;5056239;28;20093;-75
2021/07/10 09:30:59;;;;;;;2.47;1.85;;;;;;;;;;5061504;28;20538;-76
2021/07/10 09:33:44;;;;;;;2.47;2.05;;;;;;;;;;5057681;28;20516;-75
2021/07/10 09:36:28;;;;;;;4.07;1.80;;;;;;;;;;5050491;28;20130;-75
2021/07/10 09:39:13;;;;;;;3.58;1.95;;;;;;;;;;5051160;28;20843;-74
2021/07/10 09:41:58;;;;;;;2.83;2.00;;;;;;;;;;5058993;28;20090;-74
2021/07/10 09:44:46;;;;;;;2.70;1.98;;;;;;;;;;5033487;28;20064;-74
2021/07/10 09:47:35;;;;;;;4.18;2.00;;;;;;;;;;5065061;28;20419;-74
2021/07/10 09:50:21;;;;;;;4.05;2.10;;;;;;;;;;5051575;28;20079;-75
2021/07/10 09:53:19;;;;;;;3.13;2.08;;;;;;;;;;5034832;28;20116;-74
2021/07/10 09:56:08;;;;;;;5.53;1.92;;;;;;;;;;5036946;28;20044;-75
2021/07/10 09:58:52;;;;;;;2.90;1.73;;;;;;;;;;5050273;28;20263;-74
2021/07/10 10:01:37;;;;;;;2.30;1.80;;;;;;;;;;5056507;28;20040;-73
2021/07/10 10:04:21;;;;;;;6.05;2.03;;;;;;;;;;5061656;28;20076;-74
2021/07/10 10:07:12;;;;;;;2.47;1.90;;;;;;;;;;5064717;28;20081;-73
2021/07/10 10:09:58;;;;;;;2.25;1.92;;;;;;;;;;5058217;28;20732;-73
2021/07/10 10:12:42;;;;;;;2.10;1.67;;;;;;;;;;5063168;28;20039;-74
2021/07/10 10:15:27;;;;;;;2.20;1.80;;;;;;;;;;5063302;28;20043;-75
2021/07/10 10:18:12;;;;;;;2.55;1.65;;;;;;;;;;5037111;28;20036;-74
2021/07/10 10:20:57;;;;;;;2.65;1.80;;;;;;;;;;5058086;28;20084;-74
2021/07/10 10:23:41;;;;;;;2.50;1.90;;;;;;;;;;5065511;28;20055;-73
2021/07/10 10:26:26;;;;;;;2.25;1.70;;;;;;;;;;5043570;28;20039;-74
2021/07/10 10:29:10;;;;;;;2.28;1.80;;;;;;;;;;5063973;28;20062;-74
2021/07/10 10:31:56;;;;;;;3.67;2.05;;;;;;;;;;5055604;28;20043;-73
2021/07/10 10:34:41;;;;;;;3.60;1.90;;;;;;;;;;5056213;28;20128;-74
2021/07/10 10:37:25;;;;;;;2.70;1.85;;;;;;;;;;5056092;28;20043;-75
2021/07/10 10:40:14;;;;;;;2.35;1.83;;;;;;;;;;5042622;28;20121;-75
2021/07/10 10:42:59;;;;;;;2.70;2.00;;;;;;;;;;5045608;28;20047;-76
2021/07/10 10:45:44;;;;;;;2.63;1.98;;;;;;;;;;5063919;28;20059;-76
2021/07/10 10:48:39;;;;;;;2.58;1.95;;;;;;;;;;5063045;28;20062;-75
2021/07/10 10:51:34;;;;;;;4.35;1.70;;;;;;;;;;5040242;28;20036;-75
2021/07/10 10:54:19;;;;;;;2.40;1.90;;;;;;;;;;5061196;28;20032;-75
2021/07/10 10:57:07;;;;;;;3.47;1.88;;;;;;;;;;5062915;28;20102;-75
2021/07/10 10:59:54;;;;;;;3.28;2.00;;;;;;;;;;5047848;28;20126;-75
2021/07/10 11:02:40;;;;;;;3.33;2.22;;;;;;;;;;5056411;28;20090;-75
2021/07/10 11:05:31;;;;;;;4.00;1.85;;;;;;;;;;5046664;28;20057;-75
2021/07/10 11:08:21;;;;;;;2.40;1.80;;;;;;;;;;5062995;28;20097;-75
2021/07/10 11:11:06;;;;;;;3.05;1.92;;;;;;;;;;5063927;28;20035;-74
2021/07/10 11:14:00;;;;;;;2.15;1.95;;;;;;;;;;5056254;28;20047;-75
2021/07/10 11:17:14;;;;;;;3.25;1.90;;;;;;;;;;5055856;28;20413;-74
2021/07/10 11:19:59;;;;;;;2.75;1.88;;;;;;;;;;5056209;28;20464;-75
2021/07/10 11:22:54;;;;;;;2.38;2.05;;;;;;;;;;5045404;28;20118;-74
2021/07/10 11:25:55;;;;;;;3.80;1.95;;;;;;;;;;5047212;28;20618;-75
2021/07/10 11:28:42;;;;;;;3.30;2.17;;;;;;;;;;5065137;28;20047;-75
2021/07/10 11:31:36;;;;;;;2.53;2.10;;;;;;;;;;5061278;28;20101;-75
2021/07/10 11:34:36;;;;;;;2.70;2.30;;;;;;;;;;5057752;28;20039;-75
2021/07/10 11:37:21;;;;;;;2.28;1.90;;;;;;;;;;5062605;28;20097;-75
2021/07/10 11:40:07;;;;;;;2.75;2.10;;;;;;;;;;5063981;28;20063;-79
2021/07/10 11:42:52;;;;;;;3.25;2.25;;;;;;;;;;5062646;28;20097;-75
2021/07/10 11:45:37;;;;;;;2.20;1.83;;;;;;;;;;5064237;28;20150;-75
2021/07/10 11:48:23;;;;;;;2.22;1.80;;;;;;;;;;5051127;28;22196;-75
2021/07/10 11:51:08;;;;;;;2.60;2.00;;;;;;;;;;5043135;28;20110;-76
2021/07/10 11:53:57;;;;;;;3.72;2.20;;;;;;;;;;5045119;28;20053;-75
2021/07/10 11:56:42;;;;;;;2.38;2.00;;;;;;;;;;5047344;28;20157;-75
2021/07/10 11:59:26;;;;;;;3.85;2.00;;;;;;;;;;5058727;28;20123;-72
2021/07/10 12:02:18;;;;;;;6.55;2.20;;;;;;;;;;5051353;28;20440;-77
2021/07/10 12:05:02;;;;;;;8.43;2.40;;;;;;;;;;5053580;28;20116;-76
2021/07/10 12:07:57;;;;;;;2.58;2.00;;;;;;;;;;5054959;28;20523;-76
2021/07/10 12:10:43;;;;;;;2.92;2.15;;;;;;;;;;5038376;28;20062;-75
2021/07/10 12:13:27;;;;;;;3.33;2.03;;;;;;;;;;5052813;28;20571;-76
2021/07/10 12:16:12;;;;;;;3.47;1.95;;;;;;;;;;5040915;28;20120;-76
2021/07/10 12:18:57;;;;;;;4.43;2.30;;;;;;;;;;5049656;28;20117;-76
2021/07/10 12:21:41;;;;;;;3.15;2.20;;;;;;;;;;5052364;28;20150;-74
2021/07/10 12:24:26;;;;;;;5.80;2.03;;;;;;;;;;5056730;28;20507;-76
2021/07/10 12:27:11;;;;;;;3.90;2.22;;;;;;;;;;5066231;28;20511;-77
2021/07/10 12:29:56;;;;;;;4.45;1.90;;;;;;;;;;5041359;28;20031;-76
2021/07/10 12:32:41;;;;;;;6.45;2.30;;;;;;;;;;5060721;28;20062;-75
2021/07/10 12:35:25;;;;;;;3.30;2.30;;;;;;;;;;5065828;28;20067;-75
2021/07/10 12:38:10;;;;;;;3.92;2.10;;;;;;;;;;5064632;28;20119;-75
2021/07/10 12:40:55;;;;;;;4.05;2.10;;;;;;;;;;5041843;28;20095;-76
2021/07/10 12:43:39;;;;;;;5.38;2.50;;;;;;;;;;5053895;28;20095;-75
2021/07/10 12:46:24;;;;;;;4.38;2.17;;;;;;;;;;5066432;28;20114;-75
2021/07/10 12:49:08;;;;;;;4.18;2.60;;;;;;;;;;5062992;28;20093;-75
2021/07/10 12:51:53;;;;;;;4.35;2.25;;;;;;;;;;5057487;28;20038;-75
2021/07/10 12:54:40;;;;;;;3.20;2.30;;;;;;;;;;5063178;28;20392;-75
2021/07/10 12:57:25;;;;;;;5.70;2.28;;;;;;;;;;5043989;28;20059;-75
2021/07/10 13:00:13;;;;;;;4.50;2.10;;;;;;;;;;5065405;28;20119;-74
2021/07/10 13:03:01;;;;;;;3.42;1.92;;;;;;;;;;5059132;28;20074;-74
2021/07/10 13:05:50;;;;;;;2.67;2.20;;;;;;;;;;5044925;28;20515;-75
2021/07/10 13:08:35;;;;;;;2.60;1.95;;;;;;;;;;5049894;28;20039;-75
2021/07/10 13:11:20;;;;;;;3.25;2.15;;;;;;;;;;5062891;28;20605;-75
2021/07/10 13:14:05;;;;;;;2.90;2.30;;;;;;;;;;5058161;28;20075;-75
2021/07/10 13:16:49;;;;;;;3.00;2.30;;;;;;;;;;5063060;28;20598;-75
2021/07/10 13:19:34;;;;;;;3.40;2.40;;;;;;;;;;5064610;28;20043;-76
2021/07/10 13:22:18;;;;;;;3.58;2.20;;;;;;;;;;5062890;28;20444;-75
2021/07/10 13:25:10;;;;;;;4.30;2.30;;;;;;;;;;5060231;28;20116;-76
2021/07/10 13:27:55;;;;;;;4.60;2.28;;;;;;;;;;5065105;28;20048;-75
2021/07/10 13:30:39;;;;;;;4.68;2.50;;;;;;;;;;5045205;28;20498;-75
2021/07/10 13:33:27;;;;;;;3.17;1.98;;;;;;;;;;5058739;28;20031;-75
2021/07/10 13:36:22;;;;;;;2.90;2.10;;;;;;;;;;5049129;28;20106;-75
2021/07/10 13:39:11;;;;;;;2.95;2.15;;;;;;;;;;5050314;28;20044;-76
2021/07/10 13:41:56;;;;;;;3.78;2.10;;;;;;;;;;5050344;28;20047;-76
2021/07/10 13:44:52;;;;;;;3.67;2.60;;;;;;;;;;5062254;28;20056;-75
2021/07/10 13:47:36;;;;;;;2.85;2.20;;;;;;;;;;5052789;28;20042;-76
2021/07/10 13:50:21;;;;;;;3.90;2.55;;;;;;;;;;5063961;28;20039;-76
2021/07/10 13:53:16;;;;;;;4.38;2.35;;;;;;;;;;5063297;28;20097;-75
2021/07/10 13:56:14;;;;;;;8.43;2.85;;;;;;;;;;5052833;28;20078;-75
2021/07/10 13:59:02;;;;;;;5.95;2.65;;;;;;;;;;5045370;28;20035;-75
2021/07/10 14:01:47;;;;;;;7.68;2.70;;;;;;;;;;5049283;28;20044;-74
2021/07/10 14:04:31;;;;;;;5.78;2.47;;;;;;;;;;5055434;28;20490;-75
2021/07/10 14:07:16;;;;;;;10.60;2.97;;;;;;;;;;5047985;28;20036;-75
2021/07/10 14:10:00;;;;;;;7.88;2.60;;;;;;;;;;5063781;28;20122;-75
2021/07/10 14:12:45;;;;;;;10.27;2.80;;;;;;;;;;5060805;28;20534;-75
2021/07/10 14:15:30;;;;;;;6.60;3.20;;;;;;;;;;5047476;28;20035;-75
2021/07/10 14:18:15;;;;;;;9.52;2.95;;;;;;;;;;5049511;28;20066;-75
2021/07/10 14:21:00;;;;;;;5.45;2.50;;;;;;;;;;5063374;28;20059;-75
2021/07/10 14:23:44;;;;;;;6.38;3.28;;;;;;;;;;5059838;28;20056;-75
2021/07/10 14:26:29;;;;;;;5.53;2.58;;;;;;;;;;5047555;28;20043;-75
2021/07/10 14:29:13;;;;;;;7.57;2.92;;;;;;;;;;5063103;28;20149;-76
2021/07/10 14:31:58;;;;;;;7.28;2.95;;;;;;;;;;5060617;28;20397;-76
2021/07/10 14:34:42;;;;;;;7.13;2.70;;;;;;;;;;5057261;28;20120;-75
2021/07/10 14:37:27;;;;;;;3.85;2.55;;;;;;;;;;5035316;28;20066;-75
2021/07/10 14:40:13;;;;;;;6.53;2.90;;;;;;;;;;5044499;28;20078;-77
2021/07/10 14:42:58;;;;;;;5.20;2.80;;;;;;;;;;5059723;28;20352;-77
2021/07/10 14:45:42;;;;;;;5.43;2.58;;;;;;;;;;5062686;28;20397;-75
2021/07/10 14:48:27;;;;;;;3.80;2.50;;;;;;;;;;5062546;28;20035;-75
2021/07/10 14:51:12;;;;;;;4.47;2.60;;;;;;;;;;5045796;28;20119;-75
2021/07/10 14:53:56;;;;;;;6.22;2.40;;;;;;;;;;5062568;28;20039;-77
2021/07/10 14:56:41;;;;;;;5.57;2.70;;;;;;;;;;5061236;28;20811;-75
2021/07/10 14:59:26;;;;;;;5.57;2.80;;;;;;;;;;5062824;28;20046;-76
2021/07/10 15:02:10;;;;;;;6.07;3.03;;;;;;;;;;5059188;28;20055;-76
2021/07/10 15:04:57;;;;;;;7.72;2.80;;;;;;;;;;5059544;28;20078;-77
2021/07/10 15:07:42;;;;;;;4.70;2.45;;;;;;;;;;5058419;28;20462;-77
2021/07/10 15:10:27;;;;;;;4.93;2.60;;;;;;;;;;5039925;28;20067;-77
2021/07/10 15:13:11;;;;;;;5.63;2.67;;;;;;;;;;5040194;28;20047;-76
2021/07/10 15:15:56;;;;;;;5.75;2.50;;;;;;;;;;5058614;28;20528;-77
2021/07/10 15:18:41;;;;;;;4.10;2.88;;;;;;;;;;5064602;28;20043;-76
2021/07/10 15:21:26;;;;;;;5.40;2.45;;;;;;;;;;5055906;28;20051;-76
2021/07/10 15:24:10;;;;;;;5.18;2.70;;;;;;;;;;5054943;28;20074;-76
2021/07/10 15:26:55;;;;;;;4.22;2.38;;;;;;;;;;5061607;28;20067;-77
2021/07/10 15:29:39;;;;;;;3.95;2.28;;;;;;;;;;5062826;28;20258;-77
2021/07/10 15:32:24;;;;;;;5.90;2.70;;;;;;;;;;5062637;28;20059;-78
2021/07/10 15:35:09;;;;;;;3.85;2.40;;;;;;;;;;5057714;28;20043;-78
2021/07/10 15:37:54;;;;;;;4.65;2.60;;;;;;;;;;5061551;28;20042;-77
2021/07/10 15:40:39;;;;;;;4.10;2.95;;;;;;;;;;5047640;28;20039;-77
2021/07/10 15:43:24;;;;;;;6.03;2.70;;;;;;;;;;5044092;28;20506;-77
2021/07/10 15:46:08;;;;;;;5.38;2.80;;;;;;;;;;5060189;28;20089;-77
2021/07/10 15:48:52;;;;;;;5.57;2.70;;;;;;;;;;5044227;28;20090;-77
2021/07/10 15:51:37;;;;;;;4.88;2.60;;;;;;;;;;5063007;28;20063;-77
2021/07/10 15:54:22;;;;;;;4.43;2.47;;;;;;;;;;5029150;28;20036;-77
2021/07/10 15:57:06;;;;;;;4.72;2.70;;;;;;;;;;5047159;28;20449;-77
2021/07/10 15:59:51;;;;;;;4.68;2.60;;;;;;;;;;5045918;28;20090;-77
2021/07/10 16:02:36;;;;;;;4.78;2.80;;;;;;;;;;5032566;28;20093;-77
2021/07/10 16:05:20;;;;;;;4.00;3.00;;;;;;;;;;5042893;28;20126;-77
2021/07/10 16:08:04;;;;;;;4.75;2.70;;;;;;;;;;5061246;28;20856;-77
2021/07/10 16:10:49;;;;;;;5.45;2.83;;;;;;;;;;5062800;28;20090;-77
2021/07/10 16:13:34;;;;;;;4.65;2.50;;;;;;;;;;5058350;28;20043;-77
2021/07/10 16:16:18;;;;;;;4.70;2.80;;;;;;;;;;5059431;28;20067;-77
2021/07/10 16:19:03;;;;;;;4.40;2.55;;;;;;;;;;5062659;28;20035;-77
2021/07/10 16:21:48;;;;;;;4.57;2.67;;;;;;;;;;5062738;28;21883;-77
2021/07/10 16:24:34;;;;;;;4.28;2.95;;;;;;;;;;5061755;28;20420;-77
2021/07/10 16:27:19;;;;;;;4.43;3.00;;;;;;;;;;5061474;28;20039;-77
2021/07/10 16:30:10;;;;;;;4.38;2.70;;;;;;;;;;5063503;28;20550;-76
2021/07/10 16:32:55;;;;;;;5.47;2.83;;;;;;;;;;5060977;28;20047;-77